sensor_id;sensor_type;location;lat;lon;timestamp;P1;durP1;ratioP1;P2;durP2;ratioP2
10120;SDS011;5100;45.176;5.714;2023-04-25T00:00:51;2.12;;;1.83;;
10120;SDS011;5100;45.176;5.714;2023-04-25T00:03:18;2.00;;;1.77;;
10120;SDS011;5100;45.176;5.714;2023-04-25T00:05:44;2.55;;;1.85;;
10120;SDS011;5100;45.176;5.714;2023-04-25T00:08:11;2.97;;;1.70;;
10120;SDS011;5100;45.176;5.714;2023-04-25T00:10:37;5.50;;;2.00;;
10120;SDS011;5100;45.176;5.714;2023-04-25T00:13:03;3.45;;;2.00;;
10120;SDS011;5100;45.176;5.714;2023-04-25T00:15:29;2.90;;;1.92;;
10120;SDS011;5100;45.176;5.714;2023-04-25T00:17:58;3.85;;;2.05;;
10120;SDS011;5100;45.176;5.714;2023-04-25T00:20:24;3.85;;;1.98;;
10120;SDS011;5100;45.176;5.714;2023-04-25T00:22:50;4.22;;;1.80;;
10120;SDS011;5100;45.176;5.714;2023-04-25T00:25:19;2.75;;;1.80;;
10120;SDS011;5100;45.176;5.714;2023-04-25T00:27:45;2.05;;;1.85;;
10120;SDS011;5100;45.176;5.714;2023-04-25T00:30:12;2.35;;;1.83;;
10120;SDS011;5100;45.176;5.714;2023-04-25T00:32:39;2.08;;;1.90;;
10120;SDS011;5100;45.176;5.714;2023-04-25T00:35:05;3.47;;;1.98;;
10120;SDS011;5100;45.176;5.714;2023-04-25T00:37:32;3.65;;;2.15;;
10120;SDS011;5100;45.176;5.714;2023-04-25T00:39:58;3.05;;;1.92;;
10120;SDS011;5100;45.176;5.714;2023-04-25T00:42:24;1.80;;;1.70;;
10120;SDS011;5100;45.176;5.714;2023-04-25T00:44:51;6.37;;;2.28;;
10120;SDS011;5100;45.176;5.714;2023-04-25T00:47:18;3.65;;;2.10;;
10120;SDS011;5100;45.176;5.714;2023-04-25T00:49:44;2.60;;;2.20;;
10120;SDS011;5100;45.176;5.714;2023-04-25T00:52:11;2.47;;;1.95;;
10120;SDS011;5100;45.176;5.714;2023-04-25T00:54:38;3.62;;;1.80;;
10120;SDS011;5100;45.176;5.714;2023-04-25T00:57:04;2.92;;;1.92;;
10120;SDS011;5100;45.176;5.714;2023-04-25T00:59:30;3.78;;;2.72;;
10120;SDS011;5100;45.176;5.714;2023-04-25T01:01:57;5.47;;;2.22;;
10120;SDS011;5100;45.176;5.714;2023-04-25T01:04:24;3.58;;;2.37;;
10120;SDS011;5100;45.176;5.714;2023-04-25T01:06:52;2.47;;;2.15;;
10120;SDS011;5100;45.176;5.714;2023-04-25T01:09:19;3.87;;;2.00;;
10120;SDS011;5100;45.176;5.714;2023-04-25T01:11:46;3.37;;;2.00;;
10120;SDS011;5100;45.176;5.714;2023-04-25T01:14:12;2.47;;;2.00;;
10120;SDS011;5100;45.176;5.714;2023-04-25T01:16:38;4.12;;;2.10;;
10120;SDS011;5100;45.176;5.714;2023-04-25T01:19:06;2.65;;;2.03;;
10120;SDS011;5100;45.176;5.714;2023-04-25T01:21:36;2.67;;;1.98;;
10120;SDS011;5100;45.176;5.714;2023-04-25T01:24:02;2.50;;;1.90;;
10120;SDS011;5100;45.176;5.714;2023-04-25T01:26:29;2.75;;;1.92;;
10120;SDS011;5100;45.176;5.714;2023-04-25T01:28:55;2.05;;;1.60;;
10120;SDS011;5100;45.176;5.714;2023-04-25T01:31:23;2.92;;;1.80;;
10120;SDS011;5100;45.176;5.714;2023-04-25T01:33:49;3.67;;;2.20;;
10120;SDS011;5100;45.176;5.714;2023-04-25T01:36:15;2.72;;;1.92;;
10120;SDS011;5100;45.176;5.714;2023-04-25T01:38:41;2.22;;;1.67;;
10120;SDS011;5100;45.176;5.714;2023-04-25T01:41:09;6.00;;;2.10;;
10120;SDS011;5100;45.176;5.714;2023-04-25T01:43:35;4.25;;;2.10;;
10120;SDS011;5100;45.176;5.714;2023-04-25T01:46:02;2.78;;;1.70;;
10120;SDS011;5100;45.176;5.714;2023-04-25T01:48:29;1.90;;;1.80;;
10120;SDS011;5100;45.176;5.714;2023-04-25T01:50:55;2.10;;;1.90;;
10120;SDS011;5100;45.176;5.714;2023-04-25T01:53:21;2.92;;;2.00;;
10120;SDS011;5100;45.176;5.714;2023-04-25T01:55:48;1.95;;;1.62;;
10120;SDS011;5100;45.176;5.714;2023-04-25T01:58:14;5.62;;;1.90;;
10120;SDS011;5100;45.176;5.714;2023-04-25T02:00:42;4.32;;;2.10;;
10120;SDS011;5100;45.176;5.714;2023-04-25T02:03:09;2.15;;;1.85;;
10120;SDS011;5100;45.176;5.714;2023-04-25T02:05:35;3.45;;;1.87;;
10120;SDS011;5100;45.176;5.714;2023-04-25T02:08:04;4.93;;;1.90;;
10120;SDS011;5100;45.176;5.714;2023-04-25T02:10:31;2.10;;;1.90;;
10120;SDS011;5100;45.176;5.714;2023-04-25T02:13:00;1.87;;;1.60;;
10120;SDS011;5100;45.176;5.714;2023-04-25T02:15:26;1.90;;;1.75;;
10120;SDS011;5100;45.176;5.714;2023-04-25T02:17:53;2.20;;;1.80;;
10120;SDS011;5100;45.176;5.714;2023-04-25T02:20:20;2.92;;;2.03;;
10120;SDS011;5100;45.176;5.714;2023-04-25T02:22:47;2.72;;;1.92;;
10120;SDS011;5100;45.176;5.714;2023-04-25T02:25:13;2.12;;;1.70;;
10120;SDS011;5100;45.176;5.714;2023-04-25T02:27:41;2.45;;;1.55;;
10120;SDS011;5100;45.176;5.714;2023-04-25T02:30:08;5.12;;;2.17;;
10120;SDS011;5100;45.176;5.714;2023-04-25T02:32:35;2.80;;;1.80;;
10120;SDS011;5100;45.176;5.714;2023-04-25T02:35:01;7.22;;;2.00;;
10120;SDS011;5100;45.176;5.714;2023-04-25T02:37:32;3.25;;;1.73;;
10120;SDS011;5100;45.176;5.714;2023-04-25T02:39:59;5.70;;;1.80;;
10120;SDS011;5100;45.176;5.714;2023-04-25T02:42:25;4.20;;;1.65;;
10120;SDS011;5100;45.176;5.714;2023-04-25T02:44:52;1.90;;;1.80;;
10120;SDS011;5100;45.176;5.714;2023-04-25T02:47:19;2.33;;;1.92;;
10120;SDS011;5100;45.176;5.714;2023-04-25T02:49:45;3.10;;;1.95;;
10120;SDS011;5100;45.176;5.714;2023-04-25T02:52:12;1.70;;;1.60;;
10120;SDS011;5100;45.176;5.714;2023-04-25T02:54:39;2.03;;;1.75;;
10120;SDS011;5100;45.176;5.714;2023-04-25T02:57:06;3.65;;;1.87;;
10120;SDS011;5100;45.176;5.714;2023-04-25T02:59:34;4.95;;;2.10;;
10120;SDS011;5100;45.176;5.714;2023-04-25T03:02:00;2.62;;;2.10;;
10120;SDS011;5100;45.176;5.714;2023-04-25T03:04:27;3.67;;;1.83;;
10120;SDS011;5100;45.176;5.714;2023-04-25T03:06:54;4.70;;;2.33;;
10120;SDS011;5100;45.176;5.714;2023-04-25T03:09:20;2.20;;;2.00;;
10120;SDS011;5100;45.176;5.714;2023-04-25T03:11:48;2.37;;;2.03;;
10120;SDS011;5100;45.176;5.714;2023-04-25T03:14:15;2.92;;;1.90;;
10120;SDS011;5100;45.176;5.714;2023-04-25T03:16:41;5.25;;;2.42;;
10120;SDS011;5100;45.176;5.714;2023-04-25T03:19:07;3.37;;;1.90;;
10120;SDS011;5100;45.176;5.714;2023-04-25T03:21:33;3.30;;;2.22;;
10120;SDS011;5100;45.176;5.714;2023-04-25T03:24:00;3.10;;;2.33;;
10120;SDS011;5100;45.176;5.714;2023-04-25T03:26:28;4.97;;;2.70;;
10120;SDS011;5100;45.176;5.714;2023-04-25T03:28:54;2.62;;;2.25;;
10120;SDS011;5100;45.176;5.714;2023-04-25T03:31:20;3.42;;;2.65;;
10120;SDS011;5100;45.176;5.714;2023-04-25T03:33:47;2.47;;;2.20;;
10120;SDS011;5100;45.176;5.714;2023-04-25T03:36:16;2.45;;;2.25;;
10120;SDS011;5100;45.176;5.714;2023-04-25T03:38:42;3.60;;;2.40;;
10120;SDS011;5100;45.176;5.714;2023-04-25T03:41:08;3.85;;;2.60;;
10120;SDS011;5100;45.176;5.714;2023-04-25T03:43:35;3.15;;;2.60;;
10120;SDS011;5100;45.176;5.714;2023-04-25T03:46:02;3.00;;;2.35;;
10120;SDS011;5100;45.176;5.714;2023-04-25T03:48:27;4.32;;;2.53;;
10120;SDS011;5100;45.176;5.714;2023-04-25T03:50:54;3.75;;;3.10;;
10120;SDS011;5100;45.176;5.714;2023-04-25T03:53:20;13.38;;;3.17;;
10120;SDS011;5100;45.176;5.714;2023-04-25T03:55:55;2.65;;;2.45;;
10120;SDS011;5100;45.176;5.714;2023-04-25T03:58:22;2.92;;;2.72;;
10120;SDS011;5100;45.176;5.714;2023-04-25T04:00:49;2.87;;;2.30;;
10120;SDS011;5100;45.176;5.714;2023-04-25T04:03:16;3.28;;;2.30;;
10120;SDS011;5100;45.176;5.714;2023-04-25T04:05:42;3.67;;;2.12;;
10120;SDS011;5100;45.176;5.714;2023-04-25T04:08:08;3.42;;;2.45;;
10120;SDS011;5100;45.176;5.714;2023-04-25T04:10:36;2.97;;;2.37;;
10120;SDS011;5100;45.176;5.714;2023-04-25T04:13:02;4.05;;;2.60;;
10120;SDS011;5100;45.176;5.714;2023-04-25T04:15:29;4.50;;;2.95;;
10120;SDS011;5100;45.176;5.714;2023-04-25T04:17:58;3.10;;;2.53;;
10120;SDS011;5100;45.176;5.714;2023-04-25T04:20:28;2.90;;;2.50;;
10120;SDS011;5100;45.176;5.714;2023-04-25T04:22:56;4.82;;;2.53;;
10120;SDS011;5100;45.176;5.714;2023-04-25T04:25:23;4.32;;;2.80;;
10120;SDS011;5100;45.176;5.714;2023-04-25T04:27:52;3.15;;;2.50;;
10120;SDS011;5100;45.176;5.714;2023-04-25T04:30:23;7.78;;;3.00;;
10120;SDS011;5100;45.176;5.714;2023-04-25T04:32:51;3.83;;;2.80;;
10120;SDS011;5100;45.176;5.714;2023-04-25T04:35:17;4.50;;;2.45;;
10120;SDS011;5100;45.176;5.714;2023-04-25T04:37:43;3.85;;;2.40;;
10120;SDS011;5100;45.176;5.714;2023-04-25T04:40:11;4.82;;;2.72;;
10120;SDS011;5100;45.176;5.714;2023-04-25T04:42:41;2.58;;;2.35;;
10120;SDS011;5100;45.176;5.714;2023-04-25T04:45:08;3.67;;;2.62;;
10120;SDS011;5100;45.176;5.714;2023-04-25T04:47:35;4.03;;;2.50;;
10120;SDS011;5100;45.176;5.714;2023-04-25T04:50:02;3.53;;;2.80;;
10120;SDS011;5100;45.176;5.714;2023-04-25T04:52:30;3.65;;;2.65;;
10120;SDS011;5100;45.176;5.714;2023-04-25T04:54:57;5.28;;;2.67;;
10120;SDS011;5100;45.176;5.714;2023-04-25T04:57:23;4.90;;;2.70;;
10120;SDS011;5100;45.176;5.714;2023-04-25T04:59:50;5.43;;;2.62;;
10120;SDS011;5100;45.176;5.714;2023-04-25T05:02:17;5.18;;;2.78;;
10120;SDS011;5100;45.176;5.714;2023-04-25T05:04:43;5.75;;;3.10;;
10120;SDS011;5100;45.176;5.714;2023-04-25T05:07:09;4.22;;;2.78;;
10120;SDS011;5100;45.176;5.714;2023-04-25T05:09:40;4.47;;;2.40;;
10120;SDS011;5100;45.176;5.714;2023-04-25T05:12:06;2.55;;;2.28;;
10120;SDS011;5100;45.176;5.714;2023-04-25T05:14:32;3.60;;;2.47;;
10120;SDS011;5100;45.176;5.714;2023-04-25T05:17:02;5.05;;;2.70;;
10120;SDS011;5100;45.176;5.714;2023-04-25T05:19:30;3.58;;;2.37;;
10120;SDS011;5100;45.176;5.714;2023-04-25T05:21:58;4.25;;;2.37;;
10120;SDS011;5100;45.176;5.714;2023-04-25T05:24:26;4.55;;;2.87;;
10120;SDS011;5100;45.176;5.714;2023-04-25T05:26:54;4.93;;;2.55;;
10120;SDS011;5100;45.176;5.714;2023-04-25T05:29:20;5.03;;;2.83;;
10120;SDS011;5100;45.176;5.714;2023-04-25T05:31:52;5.22;;;2.60;;
10120;SDS011;5100;45.176;5.714;2023-04-25T05:34:18;4.82;;;2.80;;
10120;SDS011;5100;45.176;5.714;2023-04-25T05:36:46;3.53;;;2.45;;
10120;SDS011;5100;45.176;5.714;2023-04-25T05:39:15;6.25;;;2.78;;
10120;SDS011;5100;45.176;5.714;2023-04-25T05:41:43;3.50;;;2.50;;
10120;SDS011;5100;45.176;5.714;2023-04-25T05:44:11;4.60;;;2.75;;
10120;SDS011;5100;45.176;5.714;2023-04-25T05:46:37;4.15;;;2.40;;
10120;SDS011;5100;45.176;5.714;2023-04-25T05:49:03;3.92;;;2.50;;
10120;SDS011;5100;45.176;5.714;2023-04-25T05:51:29;4.03;;;2.60;;
10120;SDS011;5100;45.176;5.714;2023-04-25T05:53:57;4.15;;;2.87;;
10120;SDS011;5100;45.176;5.714;2023-04-25T05:56:23;4.32;;;2.37;;
10120;SDS011;5100;45.176;5.714;2023-04-25T05:58:50;5.57;;;2.40;;
10120;SDS011;5100;45.176;5.714;2023-04-25T06:01:16;3.97;;;2.55;;
10120;SDS011;5100;45.176;5.714;2023-04-25T06:03:43;5.05;;;2.60;;
10120;SDS011;5100;45.176;5.714;2023-04-25T06:06:10;4.62;;;2.78;;
10120;SDS011;5100;45.176;5.714;2023-04-25T06:08:37;8.95;;;3.15;;
10120;SDS011;5100;45.176;5.714;2023-04-25T06:11:04;4.50;;;2.62;;
10120;SDS011;5100;45.176;5.714;2023-04-25T06:13:30;6.78;;;3.33;;
10120;SDS011;5100;45.176;5.714;2023-04-25T06:15:56;6.12;;;3.00;;
10120;SDS011;5100;45.176;5.714;2023-04-25T06:18:23;4.00;;;2.53;;
10120;SDS011;5100;45.176;5.714;2023-04-25T06:20:48;6.15;;;2.58;;
10120;SDS011;5100;45.176;5.714;2023-04-25T06:23:15;4.22;;;2.47;;
10120;SDS011;5100;45.176;5.714;2023-04-25T06:25:42;5.62;;;3.50;;
10120;SDS011;5100;45.176;5.714;2023-04-25T06:28:08;3.47;;;2.90;;
10120;SDS011;5100;45.176;5.714;2023-04-25T06:30:34;3.55;;;2.53;;
10120;SDS011;5100;45.176;5.714;2023-04-25T06:33:01;5.15;;;2.42;;
10120;SDS011;5100;45.176;5.714;2023-04-25T06:35:27;4.97;;;2.72;;
10120;SDS011;5100;45.176;5.714;2023-04-25T06:37:53;3.45;;;2.97;;
10120;SDS011;5100;45.176;5.714;2023-04-25T06:40:21;3.58;;;2.47;;
10120;SDS011;5100;45.176;5.714;2023-04-25T06:42:47;5.57;;;3.33;;
10120;SDS011;5100;45.176;5.714;2023-04-25T06:45:15;8.57;;;2.80;;
10120;SDS011;5100;45.176;5.714;2023-04-25T06:47:42;7.80;;;2.78;;
10120;SDS011;5100;45.176;5.714;2023-04-25T06:50:08;5.22;;;3.05;;
10120;SDS011;5100;45.176;5.714;2023-04-25T06:52:34;4.78;;;2.65;;
10120;SDS011;5100;45.176;5.714;2023-04-25T06:55:01;6.43;;;2.80;;
10120;SDS011;5100;45.176;5.714;2023-04-25T06:57:29;2.95;;;2.50;;
10120;SDS011;5100;45.176;5.714;2023-04-25T06:59:58;6.15;;;2.90;;
10120;SDS011;5100;45.176;5.714;2023-04-25T07:02:24;7.90;;;2.90;;
10120;SDS011;5100;45.176;5.714;2023-04-25T07:04:50;3.03;;;2.62;;
10120;SDS011;5100;45.176;5.714;2023-04-25T07:07:16;5.93;;;2.85;;
10120;SDS011;5100;45.176;5.714;2023-04-25T07:09:43;4.05;;;2.50;;
10120;SDS011;5100;45.176;5.714;2023-04-25T07:12:10;3.35;;;3.00;;
10120;SDS011;5100;45.176;5.714;2023-04-25T07:14:36;5.45;;;3.25;;
10120;SDS011;5100;45.176;5.714;2023-04-25T07:17:02;6.43;;;2.92;;
10120;SDS011;5100;45.176;5.714;2023-04-25T07:19:29;4.23;;;2.40;;
10120;SDS011;5100;45.176;5.714;2023-04-25T07:21:56;6.40;;;2.95;;
10120;SDS011;5100;45.176;5.714;2023-04-25T07:24:22;4.72;;;2.78;;
10120;SDS011;5100;45.176;5.714;2023-04-25T07:26:48;4.07;;;3.17;;
10120;SDS011;5100;45.176;5.714;2023-04-25T07:29:15;5.93;;;3.20;;
10120;SDS011;5100;45.176;5.714;2023-04-25T07:31:41;6.62;;;2.58;;
10120;SDS011;5100;45.176;5.714;2023-04-25T07:34:07;3.53;;;2.58;;
10120;SDS011;5100;45.176;5.714;2023-04-25T07:36:34;7.22;;;3.42;;
10120;SDS011;5100;45.176;5.714;2023-04-25T07:39:00;5.68;;;2.72;;
10120;SDS011;5100;45.176;5.714;2023-04-25T07:41:27;4.10;;;2.62;;
10120;SDS011;5100;45.176;5.714;2023-04-25T07:43:53;6.20;;;2.95;;
10120;SDS011;5100;45.176;5.714;2023-04-25T07:46:20;5.72;;;2.62;;
10120;SDS011;5100;45.176;5.714;2023-04-25T07:48:46;6.70;;;2.78;;
10120;SDS011;5100;45.176;5.714;2023-04-25T07:51:13;6.90;;;3.22;;
10120;SDS011;5100;45.176;5.714;2023-04-25T07:53:39;3.37;;;2.40;;
10120;SDS011;5100;45.176;5.714;2023-04-25T07:56:06;5.72;;;3.17;;
10120;SDS011;5100;45.176;5.714;2023-04-25T07:58:32;4.15;;;2.75;;
10120;SDS011;5100;45.176;5.714;2023-04-25T08:00:59;4.57;;;2.67;;
10120;SDS011;5100;45.176;5.714;2023-04-25T08:03:26;3.97;;;3.00;;
10120;SDS011;5100;45.176;5.714;2023-04-25T08:05:52;5.95;;;2.90;;
10120;SDS011;5100;45.176;5.714;2023-04-25T08:08:19;5.32;;;2.65;;
10120;SDS011;5100;45.176;5.714;2023-04-25T08:10:46;3.78;;;2.67;;
10120;SDS011;5100;45.176;5.714;2023-04-25T08:13:14;6.65;;;2.85;;
10120;SDS011;5100;45.176;5.714;2023-04-25T08:15:40;4.57;;;2.60;;
10120;SDS011;5100;45.176;5.714;2023-04-25T08:18:07;4.05;;;2.70;;
10120;SDS011;5100;45.176;5.714;2023-04-25T08:20:33;6.93;;;2.95;;
10120;SDS011;5100;45.176;5.714;2023-04-25T08:23:00;4.12;;;2.92;;
10120;SDS011;5100;45.176;5.714;2023-04-25T08:25:27;5.15;;;2.65;;
10120;SDS011;5100;45.176;5.714;2023-04-25T08:27:54;4.20;;;2.65;;
10120;SDS011;5100;45.176;5.714;2023-04-25T08:30:20;4.62;;;2.40;;
10120;SDS011;5100;45.176;5.714;2023-04-25T08:32:47;5.60;;;2.50;;
10120;SDS011;5100;45.176;5.714;2023-04-25T08:35:14;6.32;;;2.70;;
10120;SDS011;5100;45.176;5.714;2023-04-25T08:37:41;5.18;;;2.72;;
10120;SDS011;5100;45.176;5.714;2023-04-25T08:40:11;3.17;;;2.50;;
10120;SDS011;5100;45.176;5.714;2023-04-25T08:42:43;4.43;;;2.58;;
10120;SDS011;5100;45.176;5.714;2023-04-25T08:45:12;2.85;;;2.42;;
10120;SDS011;5100;45.176;5.714;2023-04-25T08:47:40;3.03;;;2.58;;
10120;SDS011;5100;45.176;5.714;2023-04-25T08:50:08;5.30;;;2.47;;
10120;SDS011;5100;45.176;5.714;2023-04-25T08:52:44;4.20;;;2.70;;
10120;SDS011;5100;45.176;5.714;2023-04-25T08:55:11;3.17;;;2.87;;
10120;SDS011;5100;45.176;5.714;2023-04-25T08:57:39;3.22;;;2.50;;
10120;SDS011;5100;45.176;5.714;2023-04-25T09:00:09;4.10;;;2.60;;
10120;SDS011;5100;45.176;5.714;2023-04-25T09:02:40;6.00;;;2.40;;
10120;SDS011;5100;45.176;5.714;2023-04-25T09:05:08;3.97;;;2.83;;
10120;SDS011;5100;45.176;5.714;2023-04-25T09:07:37;5.72;;;2.62;;
10120;SDS011;5100;45.176;5.714;2023-04-25T09:10:05;5.00;;;2.53;;
10120;SDS011;5100;45.176;5.714;2023-04-25T09:12:32;7.40;;;2.80;;
10120;SDS011;5100;45.176;5.714;2023-04-25T09:15:08;3.40;;;2.42;;
10120;SDS011;5100;45.176;5.714;2023-04-25T09:17:41;5.57;;;2.28;;
10120;SDS011;5100;45.176;5.714;2023-04-25T09:20:11;10.00;;;2.78;;
10120;SDS011;5100;45.176;5.714;2023-04-25T09:22:39;4.62;;;2.87;;
10120;SDS011;5100;45.176;5.714;2023-04-25T09:25:12;5.12;;;2.40;;
10120;SDS011;5100;45.176;5.714;2023-04-25T09:27:50;4.07;;;2.37;;
10120;SDS011;5100;45.176;5.714;2023-04-25T09:30:28;4.28;;;2.72;;
10120;SDS011;5100;45.176;5.714;2023-04-25T09:32:57;3.25;;;2.10;;
10120;SDS011;5100;45.176;5.714;2023-04-25T09:35:29;2.80;;;2.08;;
10120;SDS011;5100;45.176;5.714;2023-04-25T09:37:56;6.30;;;2.87;;
10120;SDS011;5100;45.176;5.714;2023-04-25T09:40:26;17.83;;;4.57;;
10120;SDS011;5100;45.176;5.714;2023-04-25T09:42:54;7.95;;;3.45;;
10120;SDS011;5100;45.176;5.714;2023-04-25T09:45:20;4.68;;;2.50;;
10120;SDS011;5100;45.176;5.714;2023-04-25T09:47:46;3.75;;;2.47;;
10120;SDS011;5100;45.176;5.714;2023-04-25T09:50:14;5.93;;;2.50;;
10120;SDS011;5100;45.176;5.714;2023-04-25T09:52:44;5.70;;;2.30;;
10120;SDS011;5100;45.176;5.714;2023-04-25T09:55:11;2.90;;;2.37;;
10120;SDS011;5100;45.176;5.714;2023-04-25T09:57:37;3.17;;;2.50;;
10120;SDS011;5100;45.176;5.714;2023-04-25T10:00:07;4.22;;;2.30;;
10120;SDS011;5100;45.176;5.714;2023-04-25T10:02:39;3.92;;;2.42;;
10120;SDS011;5100;45.176;5.714;2023-04-25T10:05:14;3.78;;;2.67;;
10120;SDS011;5100;45.176;5.714;2023-04-25T10:07:41;4.95;;;2.80;;
10120;SDS011;5100;45.176;5.714;2023-04-25T10:10:08;3.80;;;2.62;;
10120;SDS011;5100;45.176;5.714;2023-04-25T10:12:38;3.37;;;2.20;;
10120;SDS011;5100;45.176;5.714;2023-04-25T10:15:05;3.33;;;2.37;;
10120;SDS011;5100;45.176;5.714;2023-04-25T10:17:34;3.22;;;2.47;;
10120;SDS011;5100;45.176;5.714;2023-04-25T10:20:04;2.92;;;2.45;;
10120;SDS011;5100;45.176;5.714;2023-04-25T10:22:37;3.12;;;2.00;;
10120;SDS011;5100;45.176;5.714;2023-04-25T10:25:07;2.45;;;2.12;;
10120;SDS011;5100;45.176;5.714;2023-04-25T10:27:34;2.55;;;2.35;;
10120;SDS011;5100;45.176;5.714;2023-04-25T10:30:14;2.20;;;2.10;;
10120;SDS011;5100;45.176;5.714;2023-04-25T10:32:41;4.40;;;2.45;;
10120;SDS011;5100;45.176;5.714;2023-04-25T10:37:38;3.45;;;2.58;;
10120;SDS011;5100;45.176;5.714;2023-04-25T10:40:08;3.50;;;2.40;;
10120;SDS011;5100;45.176;5.714;2023-04-25T10:42:35;4.03;;;2.30;;
10120;SDS011;5100;45.176;5.714;2023-04-25T10:45:01;4.90;;;2.70;;
10120;SDS011;5100;45.176;5.714;2023-04-25T10:47:38;3.97;;;2.12;;
10120;SDS011;5100;45.176;5.714;2023-04-25T10:50:10;3.33;;;2.37;;
10120;SDS011;5100;45.176;5.714;2023-04-25T10:52:39;2.58;;;2.37;;
10120;SDS011;5100;45.176;5.714;2023-04-25T10:55:06;2.78;;;2.35;;
10120;SDS011;5100;45.176;5.714;2023-04-25T11:00:13;2.85;;;2.03;;
10120;SDS011;5100;45.176;5.714;2023-04-25T11:02:53;2.78;;;2.08;;
10120;SDS011;5100;45.176;5.714;2023-04-25T11:07:55;2.50;;;2.30;;
10120;SDS011;5100;45.176;5.714;2023-04-25T11:10:26;3.50;;;2.30;;
10120;SDS011;5100;45.176;5.714;2023-04-25T11:12:54;3.33;;;2.35;;
10120;SDS011;5100;45.176;5.714;2023-04-25T11:15:20;3.28;;;2.17;;
10120;SDS011;5100;45.176;5.714;2023-04-25T11:17:46;4.28;;;2.47;;
10120;SDS011;5100;45.176;5.714;2023-04-25T11:20:13;5.55;;;2.55;;
10120;SDS011;5100;45.176;5.714;2023-04-25T11:22:41;2.20;;;2.00;;
10120;SDS011;5100;45.176;5.714;2023-04-25T11:25:09;2.15;;;1.90;;
10120;SDS011;5100;45.176;5.714;2023-04-25T11:27:50;2.85;;;2.10;;
10120;SDS011;5100;45.176;5.714;2023-04-25T11:30:17;2.75;;;2.00;;
10120;SDS011;5100;45.176;5.714;2023-04-25T11:32:44;4.32;;;2.35;;
10120;SDS011;5100;45.176;5.714;2023-04-25T11:35:10;2.87;;;2.20;;
10120;SDS011;5100;45.176;5.714;2023-04-25T11:37:40;3.42;;;1.92;;
10120;SDS011;5100;45.176;5.714;2023-04-25T11:40:08;2.55;;;2.20;;
10120;SDS011;5100;45.176;5.714;2023-04-25T11:42:43;3.20;;;2.00;;
10120;SDS011;5100;45.176;5.714;2023-04-25T11:45:10;4.22;;;1.87;;
10120;SDS011;5100;45.176;5.714;2023-04-25T11:47:37;2.80;;;2.12;;
10120;SDS011;5100;45.176;5.714;2023-04-25T11:50:03;4.32;;;2.40;;
10120;SDS011;5100;45.176;5.714;2023-04-25T11:52:38;2.72;;;2.20;;
10120;SDS011;5100;45.176;5.714;2023-04-25T11:57:41;3.55;;;2.40;;
10120;SDS011;5100;45.176;5.714;2023-04-25T12:00:09;4.43;;;2.60;;
10120;SDS011;5100;45.176;5.714;2023-04-25T12:02:47;3.75;;;2.45;;
10120;SDS011;5100;45.176;5.714;2023-04-25T12:05:17;5.65;;;2.70;;
10120;SDS011;5100;45.176;5.714;2023-04-25T12:07:45;4.18;;;2.67;;
10120;SDS011;5100;45.176;5.714;2023-04-25T12:10:12;3.78;;;2.40;;
10120;SDS011;5100;45.176;5.714;2023-04-25T12:12:43;3.87;;;2.40;;
10120;SDS011;5100;45.176;5.714;2023-04-25T12:15:43;5.65;;;2.42;;
10120;SDS011;5100;45.176;5.714;2023-04-25T12:18:06;6.93;;;2.42;;
10120;SDS011;5100;45.176;5.714;2023-04-25T12:20:32;2.20;;;2.00;;
10120;SDS011;5100;45.176;5.714;2023-04-25T12:22:58;3.12;;;2.60;;
10120;SDS011;5100;45.176;5.714;2023-04-25T12:28:23;12.23;;;2.35;;
10120;SDS011;5100;45.176;5.714;2023-04-25T12:33:32;3.90;;;2.17;;
10120;SDS011;5100;45.176;5.714;2023-04-25T12:36:01;3.60;;;2.20;;
10120;SDS011;5100;45.176;5.714;2023-04-25T12:38:37;4.53;;;1.90;;
10120;SDS011;5100;45.176;5.714;2023-04-25T12:41:05;4.55;;;2.60;;
10120;SDS011;5100;45.176;5.714;2023-04-25T12:43:31;3.97;;;2.30;;
10120;SDS011;5100;45.176;5.714;2023-04-25T12:45:57;2.85;;;2.08;;
10120;SDS011;5100;45.176;5.714;2023-04-25T12:48:24;3.95;;;2.20;;
10120;SDS011;5100;45.176;5.714;2023-04-25T12:50:50;3.85;;;2.30;;
10120;SDS011;5100;45.176;5.714;2023-04-25T12:53:18;3.15;;;2.30;;
10120;SDS011;5100;45.176;5.714;2023-04-25T12:55:46;3.03;;;2.00;;
10120;SDS011;5100;45.176;5.714;2023-04-25T12:58:15;2.28;;;1.80;;
10120;SDS011;5100;45.176;5.714;2023-04-25T13:00:42;3.33;;;1.80;;
10120;SDS011;5100;45.176;5.714;2023-04-25T13:03:09;2.65;;;2.28;;
10120;SDS011;5100;45.176;5.714;2023-04-25T13:05:36;6.65;;;2.62;;
10120;SDS011;5100;45.176;5.714;2023-04-25T13:08:03;3.15;;;1.90;;
10120;SDS011;5100;45.176;5.714;2023-04-25T13:10:30;2.05;;;1.85;;
10120;SDS011;5100;45.176;5.714;2023-04-25T13:12:56;2.94;;;2.00;;
10120;SDS011;5100;45.176;5.714;2023-04-25T13:15:22;2.72;;;2.00;;
10120;SDS011;5100;45.176;5.714;2023-04-25T13:17:48;5.60;;;2.40;;
10120;SDS011;5100;45.176;5.714;2023-04-25T13:20:15;3.05;;;2.25;;
10120;SDS011;5100;45.176;5.714;2023-04-25T13:22:41;2.55;;;2.10;;
10120;SDS011;5100;45.176;5.714;2023-04-25T13:25:08;4.25;;;2.60;;
10120;SDS011;5100;45.176;5.714;2023-04-25T13:27:35;2.78;;;2.37;;
10120;SDS011;5100;45.176;5.714;2023-04-25T13:30:02;3.53;;;2.53;;
10120;SDS011;5100;45.176;5.714;2023-04-25T13:32:36;3.37;;;2.47;;
10120;SDS011;5100;45.176;5.714;2023-04-25T13:35:03;3.58;;;2.08;;
10120;SDS011;5100;45.176;5.714;2023-04-25T13:37:31;4.78;;;2.10;;
10120;SDS011;5100;45.176;5.714;2023-04-25T13:39:59;3.60;;;2.10;;
10120;SDS011;5100;45.176;5.714;2023-04-25T13:42:26;4.03;;;2.35;;
10120;SDS011;5100;45.176;5.714;2023-04-25T13:44:52;2.17;;;1.92;;
10120;SDS011;5100;45.176;5.714;2023-04-25T13:47:18;3.62;;;1.90;;
10120;SDS011;5100;45.176;5.714;2023-04-25T13:49:44;1.83;;;1.70;;
10120;SDS011;5100;45.176;5.714;2023-04-25T13:52:10;2.72;;;1.87;;
10120;SDS011;5100;45.176;5.714;2023-04-25T13:54:36;2.53;;;2.03;;
10120;SDS011;5100;45.176;5.714;2023-04-25T13:57:02;6.75;;;2.97;;
10120;SDS011;5100;45.176;5.714;2023-04-25T13:59:28;3.12;;;1.95;;
10120;SDS011;5100;45.176;5.714;2023-04-25T14:01:54;3.25;;;2.33;;
10120;SDS011;5100;45.176;5.714;2023-04-25T14:04:20;3.62;;;2.15;;
10120;SDS011;5100;45.176;5.714;2023-04-25T14:06:46;3.50;;;2.20;;
10120;SDS011;5100;45.176;5.714;2023-04-25T14:09:12;4.80;;;2.30;;
10120;SDS011;5100;45.176;5.714;2023-04-25T14:11:39;3.83;;;2.10;;
10120;SDS011;5100;45.176;5.714;2023-04-25T14:14:05;3.42;;;2.20;;
10120;SDS011;5100;45.176;5.714;2023-04-25T14:16:31;3.97;;;2.08;;
10120;SDS011;5100;45.176;5.714;2023-04-25T14:18:58;2.47;;;2.10;;
10120;SDS011;5100;45.176;5.714;2023-04-25T14:21:24;4.85;;;2.17;;
10120;SDS011;5100;45.176;5.714;2023-04-25T14:23:50;5.95;;;1.80;;
10120;SDS011;5100;45.176;5.714;2023-04-25T14:26:16;3.28;;;2.17;;
10120;SDS011;5100;45.176;5.714;2023-04-25T14:28:42;3.75;;;1.90;;
10120;SDS011;5100;45.176;5.714;2023-04-25T14:31:08;2.33;;;2.12;;
10120;SDS011;5100;45.176;5.714;2023-04-25T14:33:35;5.05;;;2.25;;
10120;SDS011;5100;45.176;5.714;2023-04-25T14:36:02;2.95;;;1.80;;
10120;SDS011;5100;45.176;5.714;2023-04-25T14:38:28;5.07;;;1.95;;
10120;SDS011;5100;45.176;5.714;2023-04-25T14:40:54;4.10;;;2.00;;
10120;SDS011;5100;45.176;5.714;2023-04-25T14:43:20;3.85;;;2.03;;
10120;SDS011;5100;45.176;5.714;2023-04-25T14:45:46;2.00;;;1.75;;
10120;SDS011;5100;45.176;5.714;2023-04-25T14:48:13;4.20;;;2.50;;
10120;SDS011;5100;45.176;5.714;2023-04-25T14:50:39;2.60;;;1.70;;
10120;SDS011;5100;45.176;5.714;2023-04-25T14:53:05;3.25;;;1.90;;
10120;SDS011;5100;45.176;5.714;2023-04-25T14:55:31;2.62;;;2.10;;
10120;SDS011;5100;45.176;5.714;2023-04-25T14:57:57;4.82;;;2.37;;
10120;SDS011;5100;45.176;5.714;2023-04-25T15:00:23;4.20;;;1.85;;
10120;SDS011;5100;45.176;5.714;2023-04-25T15:02:51;2.40;;;1.62;;
10120;SDS011;5100;45.176;5.714;2023-04-25T15:05:17;3.80;;;1.70;;
10120;SDS011;5100;45.176;5.714;2023-04-25T15:07:43;4.85;;;2.20;;
10120;SDS011;5100;45.176;5.714;2023-04-25T15:10:10;3.12;;;1.90;;
10120;SDS011;5100;45.176;5.714;2023-04-25T15:12:41;1.83;;;1.65;;
10120;SDS011;5100;45.176;5.714;2023-04-25T15:15:11;2.53;;;1.65;;
10120;SDS011;5100;45.176;5.714;2023-04-25T15:17:43;2.12;;;1.70;;